Time,TemperatureF,DewpointF,PressureIn,WindDirection,WindDirectionDegrees,WindSpeedMPH,WindSpeedGustMPH,Humidity,HourlyPrecipIn,Conditions,Clouds,dailyrainin,SolarRadiationWatts/m^2,SoftwareType,DateUTC
2013-05-12 00:01:00,46.2,38.4,30.20,West,261,4.0,4.0,74,0.00,,---,0.00,0.00,VWS V14.01,2013-05-12 06:01:00,
2013-05-12 00:06:00,45.9,38.1,30.20,West,261,3.0,4.0,74,0.00,,---,0.00,0.00,VWS V14.01,2013-05-12 06:06:00,
2013-05-12 00:11:00,45.4,36.9,30.21,WNW,284,8.0,9.0,72,0.00,,---,0.00,0.00,VWS V14.01,2013-05-12 06:11:00,
2013-05-12 00:16:00,45.6,36.8,30.21,WNW,301,4.0,9.0,71,0.00,,---,0.00,0.00,VWS V14.01,2013-05-12 06:16:00,
2013-05-12 00:21:00,45.9,36.0,30.21,NW,320,7.0,9.0,68,0.00,,---,0.00,0.00,VWS V14.01,2013-05-12 06:21:00,
2013-05-12 00:26:00,46.5,35.0,30.21,NNW,331,9.0,9.0,64,0.00,,---,0.00,0.00,VWS V14.01,2013-05-12 06:26:00,
2013-05-12 00:31:00,47.0,35.1,30.22,NNW,332,11.0,11.0,63,0.00,,---,0.00,0.00,VWS V14.01,2013-05-12 06:31:00,
2013-05-12 00:36:00,47.5,34.7,30.22,NNW,328,10.0,13.0,61,0.00,,---,0.00,0.00,VWS V14.01,2013-05-12 06:36:00,
2013-05-12 00:41:00,48.1,34.5,30.22,North,355,14.0,16.0,59,0.00,,---,0.00,0.00,VWS V14.01,2013-05-12 06:41:00,
2013-05-12 00:46:00,48.2,35.8,30.22,NNW,338,6.0,16.0,62,0.00,,---,0.00,0.00,VWS V14.01,2013-05-12 06:46:00,
2013-05-12 00:51:00,48.1,34.9,30.22,NW,309,11.0,16.0,60,0.00,,---,0.00,0.00,VWS V14.01,2013-05-12 06:51:00,
2013-05-12 00:56:00,48.5,35.3,30.22,NW,319,7.0,16.0,60,0.00,,---,0.00,0.00,VWS V14.01,2013-05-12 06:56:00,
2013-05-12 01:01:00,48.6,34.9,30.22,NW,325,5.0,9.0,59,0.00,,---,0.00,0.00,VWS V14.01,2013-05-12 07:01:00,
2013-05-12 01:06:00,48.7,35.0,30.22,NNW,328,7.0,9.0,59,0.00,,---,0.00,0.00,VWS V14.01,2013-05-12 07:06:00,
2013-05-12 01:11:00,48.7,34.6,30.22,NW,321,7.0,10.0,58,0.00,,---,0.00,0.00,VWS V14.01,2013-05-12 07:11:00,
2013-05-12 01:16:00,48.6,34.9,30.22,NW,323,6.0,10.0,59,0.00,,---,0.00,0.00,VWS V14.01,2013-05-12 07:16:00,
2013-05-12 01:21:00,48.7,34.6,30.22,NW,311,6.0,10.0,58,0.00,,---,0.00,0.00,VWS V14.01,2013-05-12 07:21:00,
2013-05-12 01:26:00,48.7,34.2,30.21,NW,305,7.0,10.0,57,0.00,,---,0.00,0.00,VWS V14.01,2013-05-12 07:26:00,
2013-05-12 01:31:00,48.9,33.5,30.21,WNW,298,7.0,8.0,55,0.00,,---,0.00,0.00,VWS V14.01,2013-05-12 07:31:00,
2013-05-12 01:36:00,49.1,34.1,30.21,NW,309,8.0,9.0,56,0.00,,---,0.00,0.00,VWS V14.01,2013-05-12 07:36:00,
2013-05-12 01:41:00,49.1,34.1,30.21,WNW,303,7.0,9.0,56,0.00,,---,0.00,0.00,VWS V14.01,2013-05-12 07:41:00,
2013-05-12 01:46:00,49.1,34.1,30.21,WNW,298,7.0,9.0,56,0.00,,---,0.00,0.00,VWS V14.01,2013-05-12 07:46:00,
2013-05-12 01:51:00,49.1,34.1,30.21,NW,305,7.0,9.0,56,0.00,,---,0.00,0.00,VWS V14.01,2013-05-12 07:51:00,
2013-05-12 01:56:00,48.9,33.5,30.20,NW,307,6.0,9.0,55,0.00,,---,0.00,0.00,VWS V14.01,2013-05-12 07:56:00,
2013-05-12 02:01:00,48.7,33.7,30.20,NW,311,6.0,7.0,56,0.00,,---,0.00,0.00,VWS V14.01,2013-05-12 08:01:00,
2013-05-12 02:06:00,48.6,33.6,30.20,NW,304,6.0,7.0,56,0.00,,---,0.00,0.00,VWS V14.01,2013-05-12 08:06:00,
2013-05-12 02:11:00,48.3,33.3,30.19,NW,304,6.0,7.0,56,0.00,,---,0.00,0.00,VWS V14.01,2013-05-12 08:11:00,
2013-05-12 02:16:00,47.9,33.4,30.19,NW,304,6.0,8.0,57,0.00,,---,0.00,0.00,VWS V14.01,2013-05-12 08:16:00,
2013-05-12 02:21:00,47.8,33.3,30.19,NW,306,7.0,8.0,57,0.00,,---,0.00,0.00,VWS V14.01,2013-05-12 08:21:00,
2013-05-12 02:26:00,47.7,33.2,30.19,NW,319,7.0,8.0,57,0.00,,---,0.00,0.00,VWS V14.01,2013-05-12 08:26:00,
2013-05-12 02:31:00,47.8,32.9,30.19,NW,316,10.0,11.0,56,0.00,,---,0.00,0.00,VWS V14.01,2013-05-12 08:31:00,
2013-05-12 02:36:00,48.1,33.2,30.19,NW,315,10.0,11.0,56,0.00,,---,0.00,0.00,VWS V14.01,2013-05-12 08:36:00,
2013-05-12 02:41:00,48.1,33.2,30.19,NW,317,10.0,11.0,56,0.00,,---,0.00,0.00,VWS V14.01,2013-05-12 08:41:00,
2013-05-12 02:46:00,48.1,33.2,30.19,NW,313,8.0,11.0,56,0.00,,---,0.00,0.00,VWS V14.01,2013-05-12 08:46:00,
2013-05-12 02:51:00,48.1,32.7,30.19,NW,317,12.0,12.0,55,0.00,,---,0.00,0.00,VWS V14.01,2013-05-12 08:51:00,
2013-05-12 02:56:00,48.1,32.7,30.19,NW,315,12.0,13.0,55,0.00,,---,0.00,0.00,VWS V14.01,2013-05-12 08:56:00,
2013-05-12 03:01:00,48.1,32.3,30.19,NW,315,11.0,12.0,54,0.00,,---,0.00,0.00,VWS V14.01,2013-05-12 09:01:00,
2013-05-12 03:06:00,48.1,32.3,30.18,NNW,327,10.0,13.0,54,0.00,,---,0.00,0.00,VWS V14.01,2013-05-12 09:06:00,
2013-05-12 03:11:00,48.1,31.8,30.18,NW,308,11.0,13.0,53,0.00,,---,0.00,0.00,VWS V14.01,2013-05-12 09:11:00,
2013-05-12 03:16:00,48.1,31.8,30.18,NW,313,10.0,13.0,53,0.00,,---,0.00,0.00,VWS V14.01,2013-05-12 09:16:00,
2013-05-12 03:21:00,48.1,31.3,30.18,NW,307,12.0,13.0,52,0.00,,---,0.00,0.00,VWS V14.01,2013-05-12 09:21:00,
2013-05-12 03:26:00,48.0,31.2,30.18,NW,304,9.0,13.0,52,0.00,,---,0.00,0.00,VWS V14.01,2013-05-12 09:26:00,
2013-05-12 03:31:00,47.8,31.5,30.18,WNW,298,8.0,9.0,53,0.00,,---,0.00,0.00,VWS V14.01,2013-05-12 09:31:00,
2013-05-12 03:36:00,47.6,31.3,30.17,NW,316,7.0,10.0,53,0.00,,---,0.00,0.00,VWS V14.01,2013-05-12 09:36:00,
2013-05-12 03:41:00,47.5,31.2,30.17,NW,323,8.0,10.0,53,0.00,,---,0.00,0.00,VWS V14.01,2013-05-12 09:41:00,
2013-05-12 03:46:00,47.3,31.5,30.18,NW,325,8.0,10.0,54,0.00,,---,0.00,0.00,VWS V14.01,2013-05-12 09:46:00,
2013-05-12 03:51:00,47.0,31.7,30.18,NNW,328,7.0,10.0,55,0.00,,---,0.00,0.00,VWS V14.01,2013-05-12 09:51:00,
2013-05-12 03:56:00,46.8,31.5,30.17,NW,317,7.0,10.0,55,0.00,,---,0.00,0.00,VWS V14.01,2013-05-12 09:56:00,
2013-05-12 04:01:00,46.8,31.5,30.18,NNW,327,8.0,11.0,55,0.00,,---,0.00,0.00,VWS V14.01,2013-05-12 10:01:00,
2013-05-12 04:06:00,46.4,31.6,30.17,North,355,7.0,11.0,56,0.00,,---,0.00,0.00,VWS V14.01,2013-05-12 10:06:00,
2013-05-12 04:11:00,46.1,31.3,30.17,North,349,8.0,11.0,56,0.00,,---,0.00,0.00,VWS V14.01,2013-05-12 10:11:00,
2013-05-12 04:16:00,45.9,31.1,30.17,NNW,339,11.0,11.0,56,0.00,,---,0.00,0.00,VWS V14.01,2013-05-12 10:16:00,
2013-05-12 04:21:00,46.3,31.5,30.17,NW,310,11.0,14.0,56,0.00,,---,0.00,0.00,VWS V14.01,2013-05-12 10:21:00,
2013-05-12 04:26:00,46.9,31.6,30.17,NW,325,8.0,14.0,55,0.00,,---,0.00,0.00,VWS V14.01,2013-05-12 10:26:00,
2013-05-12 04:31:00,47.3,31.5,30.18,NNW,328,10.0,12.0,54,0.00,,---,0.00,0.00,VWS V14.01,2013-05-12 10:31:00,
2013-05-12 04:36:00,47.4,31.6,30.18,NW,319,10.0,12.0,54,0.00,,---,0.00,0.00,VWS V14.01,2013-05-12 10:36:00,
2013-05-12 04:41:00,47.3,31.5,30.18,NNW,328,8.0,12.0,54,0.00,,---,0.00,0.00,VWS V14.01,2013-05-12 10:41:00,
2013-05-12 04:46:00,47.4,31.1,30.18,NW,308,10.0,12.0,53,0.00,,---,0.00,0.00,VWS V14.01,2013-05-12 10:46:00,
2013-05-12 04:51:00,47.8,31.0,30.18,NW,326,11.0,16.0,52,0.00,,---,0.00,0.00,VWS V14.01,2013-05-12 10:51:00,
2013-05-12 04:56:00,48.2,31.4,30.18,NW,312,12.0,16.0,52,0.00,,---,0.00,0.00,VWS V14.01,2013-05-12 10:56:00,
2013-05-12 05:01:00,48.3,31.5,30.17,NW,315,10.0,16.0,52,0.00,,---,0.00,0.00,VWS V14.01,2013-05-12 11:01:00,
2013-05-12 05:06:00,48.3,31.5,30.17,NW,326,10.0,16.0,52,0.00,,---,0.00,0.00,VWS V14.01,2013-05-12 11:06:00,
2013-05-12 05:11:00,48.3,32.0,30.18,NNW,347,9.0,16.0,53,0.00,,---,0.00,0.00,VWS V14.01,2013-05-12 11:11:00,
2013-05-12 05:16:00,48.1,31.8,30.18,NW,325,11.0,16.0,53,0.00,,---,0.00,0.00,VWS V14.01,2013-05-12 11:16:00,
2013-05-12 05:21:00,48.1,31.8,30.18,NNW,338,9.0,16.0,53,0.00,,---,0.00,0.00,VWS V14.01,2013-05-12 11:21:00,
2013-05-12 05:26:00,48.1,31.8,30.18,NW,323,9.0,16.0,53,0.00,,---,0.00,0.00,VWS V14.01,2013-05-12 11:26:00,
2013-05-12 05:31:00,47.8,32.4,30.18,NNW,335,7.0,11.0,55,0.00,,---,0.00,0.00,VWS V14.01,2013-05-12 11:31:00,
2013-05-12 05:36:00,47.4,32.1,30.18,NNW,327,8.0,11.0,55,0.00,,---,0.00,0.00,VWS V14.01,2013-05-12 11:36:00,
2013-05-12 05:41:00,47.1,31.8,30.18,NW,324,9.0,11.0,55,0.00,,---,0.00,0.00,VWS V14.01,2013-05-12 11:41:00,
2013-05-12 05:46:00,47.1,31.8,30.18,NW,323,12.0,12.0,55,0.00,,---,0.00,0.00,VWS V14.01,2013-05-12 11:46:00,
2013-05-12 05:51:00,47.2,31.0,30.18,NNW,327,10.0,14.0,53,0.00,,---,0.00,5.00,VWS V14.01,2013-05-12 11:51:00,
2013-05-12 05:56:00,47.4,31.6,30.19,NW,325,8.0,14.0,54,0.00,,---,0.00,9.00,VWS V14.01,2013-05-12 11:56:00,
2013-05-12 06:01:00,47.2,31.4,30.18,North,355,7.0,10.0,54,0.00,,---,0.00,11.00,VWS V14.01,2013-05-12 12:01:00,
2013-05-12 06:06:00,46.3,31.9,30.18,NNW,342,8.0,10.0,57,0.00,,---,0.00,14.00,VWS V14.01,2013-05-12 12:06:00,
2013-05-12 06:11:00,46.4,31.1,30.18,NW,326,8.0,12.0,55,0.00,,---,0.00,18.00,VWS V14.01,2013-05-12 12:11:00,
2013-05-12 06:16:00,46.9,31.6,30.18,NNW,329,8.0,12.0,55,0.00,,---,0.00,33.00,VWS V14.01,2013-05-12 12:16:00,
2013-05-12 06:21:00,47.4,31.6,30.18,NNW,336,8.0,12.0,54,0.00,,---,0.00,47.00,VWS V14.01,2013-05-12 12:21:00,
2013-05-12 06:26:00,47.6,31.8,30.18,NNW,327,7.0,12.0,54,0.00,,---,0.00,60.00,VWS V14.01,2013-05-12 12:26:00,
2013-05-12 06:31:00,47.4,31.6,30.18,NW,325,6.0,8.0,54,0.00,,---,0.00,74.00,VWS V14.01,2013-05-12 12:31:00,
2013-05-12 06:36:00,47.6,32.2,30.18,NNW,332,7.0,9.0,55,0.00,,---,0.00,86.00,VWS V14.01,2013-05-12 12:36:00,
2013-05-12 06:41:00,47.9,32.1,30.18,NNW,339,7.0,9.0,54,0.00,,---,0.00,104.00,VWS V14.01,2013-05-12 12:41:00,
2013-05-12 06:46:00,48.5,32.6,30.18,NNW,346,10.0,11.0,54,0.00,,---,0.00,121.00,VWS V14.01,2013-05-12 12:46:00,
2013-05-12 06:51:00,48.7,32.3,30.17,NNW,327,12.0,13.0,53,0.00,,---,0.00,139.00,VWS V14.01,2013-05-12 12:51:00,
2013-05-12 06:56:00,49.0,32.6,30.18,NNW,330,10.0,14.0,53,0.00,,---,0.00,153.00,VWS V14.01,2013-05-12 12:56:00,
2013-05-12 07:01:00,49.5,32.6,30.18,NNW,330,6.0,11.0,52,0.00,,---,0.00,171.00,VWS V14.01,2013-05-12 13:01:00,
2013-05-12 07:06:00,50.0,32.6,30.18,NNW,346,7.0,12.0,51,0.00,,---,0.00,185.00,VWS V14.01,2013-05-12 13:06:00,
2013-05-12 07:11:00,50.6,33.2,30.17,NNW,343,9.0,12.0,51,0.00,,---,0.00,200.00,VWS V14.01,2013-05-12 13:11:00,
2013-05-12 07:16:00,51.0,32.5,30.17,NNW,327,12.0,12.0,49,0.00,,---,0.00,218.00,VWS V14.01,2013-05-12 13:16:00,
2013-05-12 07:21:00,51.5,32.5,30.17,NW,325,12.0,14.0,48,0.00,,---,0.00,232.00,VWS V14.01,2013-05-12 13:21:00,
2013-05-12 07:26:00,52.2,33.1,30.18,NW,322,12.0,14.0,48,0.00,,---,0.00,244.00,VWS V14.01,2013-05-12 13:26:00,
2013-05-12 07:31:00,52.7,33.6,30.18,NW,323,10.0,12.0,48,0.00,,---,0.00,269.00,VWS V14.01,2013-05-12 13:31:00,
2013-05-12 07:36:00,53.1,34.0,30.18,NNW,330,9.0,12.0,48,0.00,,---,0.00,243.00,VWS V14.01,2013-05-12 13:36:00,
2013-05-12 07:41:00,53.7,33.4,30.18,NNW,331,9.0,12.0,46,0.00,,---,0.00,302.00,VWS V14.01,2013-05-12 13:41:00,
2013-05-12 07:46:00,54.2,33.9,30.18,NW,320,8.0,12.0,46,0.00,,---,0.00,316.00,VWS V14.01,2013-05-12 13:46:00,
2013-05-12 07:51:00,54.9,34.5,30.18,NW,317,9.0,12.0,46,0.00,,---,0.00,332.00,VWS V14.01,2013-05-12 13:51:00,
2013-05-12 07:56:00,55.6,35.7,30.18,NW,315,10.0,12.0,47,0.00,,---,0.00,355.00,VWS V14.01,2013-05-12 13:56:00,
2013-05-12 08:01:00,56.2,35.2,30.18,NW,304,11.0,11.0,45,0.00,,---,0.00,374.00,VWS V14.01,2013-05-12 14:01:00,
2013-05-12 08:06:00,56.9,35.8,30.18,NW,309,7.0,12.0,45,0.00,,---,0.00,390.00,VWS V14.01,2013-05-12 14:06:00,
2013-05-12 08:11:00,57.3,35.0,30.18,WNW,299,7.0,12.0,43,0.00,,---,0.00,406.00,VWS V14.01,2013-05-12 14:11:00,
2013-05-12 08:16:00,57.7,34.2,30.18,NW,309,8.0,12.0,41,0.00,,---,0.00,420.00,VWS V14.01,2013-05-12 14:16:00,
2013-05-12 08:21:00,58.2,33.4,30.18,WNW,291,8.0,13.0,39,0.00,,---,0.00,436.00,VWS V14.01,2013-05-12 14:21:00,
2013-05-12 08:26:00,59.0,34.1,30.17,WNW,296,12.0,13.0,39,0.00,,---,0.00,455.00,VWS V14.01,2013-05-12 14:26:00,
2013-05-12 08:31:00,59.4,33.1,30.17,NW,313,11.0,16.0,37,0.00,,---,0.00,432.00,VWS V14.01,2013-05-12 14:31:00,
2013-05-12 08:36:00,59.7,33.4,30.17,NW,305,14.0,16.0,37,0.00,,---,0.00,490.00,VWS V14.01,2013-05-12 14:36:00,
2013-05-12 08:41:00,60.0,33.7,30.17,WNW,296,11.0,16.0,37,0.00,,---,0.00,506.00,VWS V14.01,2013-05-12 14:41:00,
2013-05-12 08:46:00,60.3,35.3,30.17,NNW,333,9.0,16.0,39,0.00,,---,0.00,524.00,VWS V14.01,2013-05-12 14:46:00,
2013-05-12 08:51:00,60.8,35.1,30.17,NW,325,8.0,16.0,38,0.00,,---,0.00,540.00,VWS V14.01,2013-05-12 14:51:00,
2013-05-12 08:56:00,61.1,33.3,30.17,NNW,340,10.0,16.0,35,0.00,,---,0.00,550.00,VWS V14.01,2013-05-12 14:56:00,
2013-05-12 09:01:00,61.3,33.4,30.17,NW,325,7.0,16.0,35,0.00,,---,0.00,566.00,VWS V14.01,2013-05-12 15:01:00,
2013-05-12 09:06:00,61.4,32.8,30.16,WNW,291,8.0,16.0,34,0.00,,---,0.00,582.00,VWS V14.01,2013-05-12 15:06:00,
2013-05-12 09:11:00,62.0,33.3,30.16,NW,322,11.0,18.0,34,0.00,,---,0.00,598.00,VWS V14.01,2013-05-12 15:11:00,
2013-05-12 09:16:00,62.0,33.3,30.16,NW,306,11.0,18.0,34,0.00,,---,0.00,613.00,VWS V14.01,2013-05-12 15:16:00,
2013-05-12 09:21:00,61.9,34.7,30.16,WNW,290,12.0,18.0,36,0.00,,---,0.00,626.00,VWS V14.01,2013-05-12 15:21:00,
2013-05-12 09:26:00,62.1,33.4,30.16,WNW,292,14.0,18.0,34,0.00,,---,0.00,635.00,VWS V14.01,2013-05-12 15:26:00,
2013-05-12 09:31:00,62.2,33.5,30.16,NW,321,13.0,16.0,34,0.00,,---,0.00,647.00,VWS V14.01,2013-05-12 15:31:00,
2013-05-12 09:36:00,62.8,34.0,30.16,NW,320,13.0,16.0,34,0.00,,---,0.00,666.00,VWS V14.01,2013-05-12 15:36:00,
2013-05-12 09:41:00,63.1,32.8,30.16,WNW,302,11.0,16.0,32,0.00,,---,0.00,686.00,VWS V14.01,2013-05-12 15:41:00,
2013-05-12 09:46:00,63.0,34.2,30.16,NNW,331,14.0,16.0,34,0.00,,---,0.00,703.00,VWS V14.01,2013-05-12 15:46:00,
2013-05-12 09:51:00,63.0,33.5,30.15,NNW,327,11.0,17.0,33,0.00,,---,0.00,710.00,VWS V14.01,2013-05-12 15:51:00,
2013-05-12 09:56:00,63.2,32.1,30.15,NW,323,12.0,18.0,31,0.00,,---,0.00,715.00,VWS V14.01,2013-05-12 15:56:00,
2013-05-12 10:01:00,63.7,34.1,30.15,NW,304,13.0,21.0,33,0.00,,---,0.00,733.00,VWS V14.01,2013-05-12 16:01:00,
2013-05-12 10:06:00,64.4,33.9,30.14,NNW,334,19.0,21.0,32,0.00,,---,0.00,749.00,VWS V14.01,2013-05-12 16:06:00,
2013-05-12 10:11:00,64.3,33.0,30.15,NNW,335,12.0,21.0,31,0.00,,---,0.00,758.00,VWS V14.01,2013-05-12 16:11:00,
2013-05-12 10:16:00,64.5,34.0,30.15,WNW,301,12.0,21.0,32,0.00,,---,0.00,770.00,VWS V14.01,2013-05-12 16:16:00,
2013-05-12 10:21:00,64.5,35.5,30.14,NW,317,13.0,21.0,34,0.00,,---,0.00,780.00,VWS V14.01,2013-05-12 16:21:00,
2013-05-12 10:26:00,64.6,33.3,30.15,North,350,11.0,26.0,31,0.00,,---,0.00,789.00,VWS V14.01,2013-05-12 16:26:00,
2013-05-12 10:31:00,64.7,34.2,30.15,NW,314,14.0,18.0,32,0.00,,---,0.00,803.00,VWS V14.01,2013-05-12 16:31:00,
2013-05-12 10:36:00,64.8,33.5,30.14,NNW,328,18.0,20.0,31,0.00,,---,0.00,814.00,VWS V14.01,2013-05-12 16:36:00,
2013-05-12 10:41:00,65.1,33.7,30.15,NW,317,13.0,25.0,31,0.00,,---,0.00,826.00,VWS V14.01,2013-05-12 16:41:00,
2013-05-12 10:46:00,65.1,34.5,30.14,NW,307,22.0,25.0,32,0.00,,---,0.00,837.00,VWS V14.01,2013-05-12 16:46:00,
2013-05-12 10:51:00,65.2,33.8,30.15,NNW,346,22.0,25.0,31,0.00,,---,0.00,847.00,VWS V14.01,2013-05-12 16:51:00,
2013-05-12 10:56:00,65.4,33.2,30.15,NW,316,15.0,25.0,30,0.00,,---,0.00,861.00,VWS V14.01,2013-05-12 16:56:00,
2013-05-12 11:01:00,65.4,34.0,30.15,NW,309,14.0,22.0,31,0.00,,---,0.00,865.00,VWS V14.01,2013-05-12 17:01:00,
2013-05-12 11:06:00,65.5,33.3,30.14,NW,307,14.0,24.0,30,0.00,,---,0.00,872.00,VWS V14.01,2013-05-12 17:06:00,
2013-05-12 11:11:00,65.4,32.3,30.14,NNW,328,10.0,24.0,29,0.00,,---,0.00,875.00,VWS V14.01,2013-05-12 17:11:00,
2013-05-12 11:16:00,66.1,33.8,30.14,NNW,329,19.0,24.0,30,0.00,,---,0.00,895.00,VWS V14.01,2013-05-12 17:16:00,
2013-05-12 11:21:00,66.2,34.7,30.14,NNW,332,13.0,24.0,31,0.00,,---,0.00,904.00,VWS V14.01,2013-05-12 17:21:00,
2013-05-12 11:26:00,66.3,33.1,30.14,NNW,330,14.0,24.0,29,0.00,,---,0.00,928.00,VWS V14.01,2013-05-12 17:26:00,
2013-05-12 11:31:00,65.6,34.2,30.14,NNW,329,18.0,21.0,31,0.00,,---,0.00,914.00,VWS V14.01,2013-05-12 17:31:00,
2013-05-12 11:36:00,65.8,34.3,30.13,NNW,336,14.0,21.0,31,0.00,,---,0.00,932.00,VWS V14.01,2013-05-12 17:36:00,
2013-05-12 11:41:00,66.3,34.8,30.13,NNW,346,15.0,21.0,31,0.00,,---,0.00,976.00,VWS V14.01,2013-05-12 17:41:00,
2013-05-12 11:46:00,66.8,34.4,30.13,NW,325,12.0,21.0,30,0.00,,---,0.00,1034.00,VWS V14.01,2013-05-12 17:46:00,
2013-05-12 11:51:00,66.3,34.8,30.12,NNW,336,12.0,21.0,31,0.00,,---,0.00,255.00,VWS V14.01,2013-05-12 17:51:00,
2013-05-12 11:56:00,67.0,35.4,30.12,NNW,338,10.0,21.0,31,0.00,,---,0.00,1041.00,VWS V14.01,2013-05-12 17:56:00,
2013-05-12 12:01:00,66.4,35.7,30.12,NNW,344,11.0,18.0,32,0.00,,---,0.00,1048.00,VWS V14.01,2013-05-12 18:01:00,
2013-05-12 12:05:00,68.0,36.3,30.11,NNW,331,16.0,19.0,31,0.00,,---,0.00,1116.00,VWS V14.01,2013-05-12 18:05:00,
2013-05-12 12:10:00,68.1,33.8,30.11,North,355,14.0,19.0,28,0.00,,---,0.00,241.00,VWS V14.01,2013-05-12 18:10:00,
2013-05-12 12:15:00,67.2,33.9,30.11,NNW,340,12.0,20.0,29,0.00,,---,0.00,1121.00,VWS V14.01,2013-05-12 18:15:00,
2013-05-12 12:20:00,67.0,33.7,30.11,NNW,331,13.0,20.0,29,0.00,,---,0.00,1160.00,VWS V14.01,2013-05-12 18:20:00,
2013-05-12 12:25:00,67.6,34.2,30.10,NW,318,15.0,23.0,29,0.00,,---,0.00,244.00,VWS V14.01,2013-05-12 18:25:00,
2013-05-12 12:30:00,67.2,33.9,30.10,NW,313,10.0,19.0,29,0.00,,---,0.00,244.00,VWS V14.01,2013-05-12 18:30:00,
2013-05-12 12:35:00,67.7,34.3,30.10,NNW,333,11.0,19.0,29,0.00,,---,0.00,1055.00,VWS V14.01,2013-05-12 18:35:00,
2013-05-12 12:40:00,68.8,35.3,30.10,North,349,11.0,19.0,29,0.00,,---,0.00,1114.00,VWS V14.01,2013-05-12 18:40:00,
2013-05-12 12:45:00,69.7,35.2,30.10,NNW,343,11.0,22.0,28,0.00,,---,0.00,1151.00,VWS V14.01,2013-05-12 18:45:00,
2013-05-12 12:50:00,69.5,34.1,30.10,NW,316,13.0,22.0,27,0.00,,---,0.00,1132.00,VWS V14.01,2013-05-12 18:50:00,
2013-05-12 12:57:00,68.6,33.3,30.09,NNW,335,13.0,22.0,27,0.00,,---,0.00,1081.00,VWS V14.01,2013-05-12 18:57:00,
2013-05-12 13:03:00,68.1,32.9,30.10,NNW,331,19.0,19.0,27,0.00,,---,0.00,338.00,VWS V14.01,2013-05-12 19:03:00,
2013-05-12 13:08:00,69.2,33.8,30.09,NW,315,15.0,24.0,27,0.00,,---,0.00,288.00,VWS V14.01,2013-05-12 19:08:00,
2013-05-12 13:14:00,69.1,34.7,30.09,NW,307,16.0,24.0,28,0.00,,---,0.00,1123.00,VWS V14.01,2013-05-12 19:14:00,
2013-05-12 13:18:00,70.0,34.5,30.09,NNW,341,18.0,24.0,27,0.00,,---,0.00,1157.00,VWS V14.01,2013-05-12 19:18:00,
2013-05-12 13:24:00,69.6,33.2,30.09,NW,318,12.0,24.0,26,0.00,,---,0.00,345.00,VWS V14.01,2013-05-12 19:24:00,
2013-05-12 13:29:00,68.3,32.1,30.09,NNW,339,18.0,22.0,26,0.00,,---,0.00,401.00,VWS V14.01,2013-05-12 19:29:00,
2013-05-12 13:33:00,68.5,33.2,30.09,NNW,341,13.0,22.0,27,0.00,,---,0.00,795.00,VWS V14.01,2013-05-12 19:33:00,
2013-05-12 13:38:00,68.5,34.1,30.09,North,9,13.0,22.0,28,0.00,,---,0.00,816.00,VWS V14.01,2013-05-12 19:38:00,
2013-05-12 13:43:00,68.6,34.2,30.09,NNW,329,14.0,22.0,28,0.00,,---,0.00,441.00,VWS V14.01,2013-05-12 19:43:00,
2013-05-12 13:48:00,69.2,35.6,30.08,NW,317,13.0,22.0,29,0.00,,---,0.00,1065.00,VWS V14.01,2013-05-12 19:48:00,
2013-05-12 13:53:00,68.9,32.6,30.08,NNW,329,21.0,22.0,26,0.00,,---,0.00,431.00,VWS V14.01,2013-05-12 19:53:00,
2013-05-12 13:59:00,68.2,34.8,30.08,NW,317,12.0,18.0,29,0.00,,---,0.00,759.00,VWS V14.01,2013-05-12 19:59:00,
2013-05-12 14:04:00,68.8,33.5,30.08,NNW,342,15.0,18.0,27,0.00,,---,0.00,241.00,VWS V14.01,2013-05-12 20:04:00,
2013-05-12 14:09:00,67.8,33.5,30.08,NNW,338,16.0,18.0,28,0.00,,---,0.00,234.00,VWS V14.01,2013-05-12 20:09:00,
2013-05-12 14:14:00,67.6,35.1,30.08,NW,309,14.0,18.0,30,0.00,,---,0.00,1123.00,VWS V14.01,2013-05-12 20:14:00,
2013-05-12 14:19:00,68.6,34.2,30.08,NNW,331,16.0,18.0,28,0.00,,---,0.00,271.00,VWS V14.01,2013-05-12 20:19:00,
2013-05-12 14:24:00,67.6,34.2,30.08,NW,321,13.0,19.0,29,0.00,,---,0.00,327.00,VWS V14.01,2013-05-12 20:24:00,
2013-05-12 14:29:00,67.6,33.4,30.08,NNW,338,16.0,16.0,28,0.00,,---,0.00,390.00,VWS V14.01,2013-05-12 20:29:00,
2013-05-12 14:33:00,68.1,33.8,30.07,North,349,12.0,16.0,28,0.00,,---,0.00,316.00,VWS V14.01,2013-05-12 20:33:00,
2013-05-12 14:39:00,67.8,33.5,30.07,NNW,337,15.0,20.0,28,0.00,,---,0.00,411.00,VWS V14.01,2013-05-12 20:39:00,
2013-05-12 14:44:00,68.9,34.5,30.07,WNW,288,13.0,20.0,28,0.00,,---,0.00,355.00,VWS V14.01,2013-05-12 20:44:00,
2013-05-12 14:49:00,68.3,34.8,30.07,NNW,331,18.0,22.0,29,0.00,,---,0.00,297.00,VWS V14.01,2013-05-12 20:49:00,
2013-05-12 14:54:00,69.0,34.6,30.07,North,355,11.0,22.0,28,0.00,,---,0.00,1093.00,VWS V14.01,2013-05-12 20:54:00,
2013-05-12 14:59:00,69.2,33.8,30.06,North,349,11.0,19.0,27,0.00,,---,0.00,373.00,VWS V14.01,2013-05-12 20:59:00,
2013-05-12 15:04:00,69.1,34.7,30.06,NW,317,10.0,19.0,28,0.00,,---,0.00,1069.00,VWS V14.01,2013-05-12 21:04:00,
2013-05-12 15:08:00,70.4,32.9,30.06,WNW,287,12.0,19.0,25,0.00,,---,0.00,722.00,VWS V14.01,2013-05-12 21:08:00,
2013-05-12 15:13:00,70.0,33.6,30.06,NNW,348,11.0,19.0,26,0.00,,---,0.00,288.00,VWS V14.01,2013-05-12 21:13:00,
2013-05-12 15:18:00,69.1,34.7,30.05,NW,305,12.0,19.0,28,0.00,,---,0.00,348.00,VWS V14.01,2013-05-12 21:18:00,
2013-05-12 15:23:00,71.0,34.4,30.05,NW,304,14.0,21.0,26,0.00,,---,0.00,1053.00,VWS V14.01,2013-05-12 21:23:00,
2013-05-12 15:28:00,70.1,33.7,30.05,NNW,329,9.0,18.0,26,0.00,,---,0.00,241.00,VWS V14.01,2013-05-12 21:28:00,
2013-05-12 15:33:00,68.8,34.4,30.04,NNW,339,15.0,18.0,28,0.00,,---,0.00,946.00,VWS V14.01,2013-05-12 21:33:00,
2013-05-12 15:38:00,69.4,33.1,30.04,NW,312,12.0,18.0,26,0.00,,---,0.00,357.00,VWS V14.01,2013-05-12 21:38:00,
2013-05-12 15:43:00,69.1,32.8,30.04,NW,312,10.0,18.0,26,0.00,,---,0.00,374.00,VWS V14.01,2013-05-12 21:43:00,
2013-05-12 15:49:00,69.2,33.8,30.04,NW,317,10.0,18.0,27,0.00,,---,0.00,805.00,VWS V14.01,2013-05-12 21:49:00,
2013-05-12 15:54:00,70.3,32.8,30.03,NNW,330,13.0,19.0,25,0.00,,---,0.00,777.00,VWS V14.01,2013-05-12 21:54:00,
2013-05-12 15:58:00,70.5,33.0,30.03,North,350,10.0,13.0,25,0.00,,---,0.00,378.00,VWS V14.01,2013-05-12 21:58:00,
2013-05-12 16:03:00,70.0,31.6,30.03,NW,322,11.0,20.0,24,0.00,,---,0.00,533.00,VWS V14.01,2013-05-12 22:03:00,
2013-05-12 16:08:00,69.9,32.5,30.03,NNW,330,16.0,21.0,25,0.00,,---,0.00,401.00,VWS V14.01,2013-05-12 22:08:00,
2013-05-12 16:13:00,69.9,33.5,30.03,NW,306,13.0,21.0,26,0.00,,---,0.00,415.00,VWS V14.01,2013-05-12 22:13:00,
2013-05-12 16:18:00,70.2,32.8,30.03,NNW,327,9.0,21.0,25,0.00,,---,0.00,494.00,VWS V14.01,2013-05-12 22:18:00,
2013-05-12 16:23:00,70.5,33.0,30.03,NNW,327,15.0,21.0,25,0.00,,---,0.00,257.00,VWS V14.01,2013-05-12 22:23:00,
2013-05-12 16:28:00,70.4,33.9,30.03,NW,306,16.0,18.0,26,0.00,,---,0.00,687.00,VWS V14.01,2013-05-12 22:28:00,
2013-05-12 16:33:00,70.2,32.8,30.02,NW,325,13.0,18.0,25,0.00,,---,0.00,290.00,VWS V14.01,2013-05-12 22:33:00,
2013-05-12 16:39:00,69.8,33.4,30.03,NNW,333,9.0,19.0,26,0.00,,---,0.00,246.00,VWS V14.01,2013-05-12 22:39:00,
2013-05-12 16:44:00,70.0,33.6,30.02,NNW,330,12.0,19.0,26,0.00,,---,0.00,279.00,VWS V14.01,2013-05-12 22:44:00,
2013-05-12 16:49:00,69.7,33.3,30.02,NW,308,12.0,19.0,26,0.00,,---,0.00,123.00,VWS V14.01,2013-05-12 22:49:00,
2013-05-12 16:54:00,68.6,33.3,30.02,WNW,286,9.0,19.0,27,0.00,,---,0.00,162.00,VWS V14.01,2013-05-12 22:54:00,
2013-05-12 16:59:00,69.7,35.2,30.02,NW,321,12.0,14.0,28,0.00,,---,0.00,568.00,VWS V14.01,2013-05-12 22:59:00,
2013-05-12 17:04:00,70.7,33.2,30.01,NNW,334,15.0,19.0,25,0.00,,---,0.00,563.00,VWS V14.01,2013-05-12 23:04:00,
2013-05-12 17:08:00,70.4,34.9,30.01,NNW,331,12.0,19.0,27,0.00,,---,0.00,552.00,VWS V14.01,2013-05-12 23:08:00,
2013-05-12 17:13:00,70.8,34.2,30.01,NW,323,12.0,19.0,26,0.00,,---,0.00,515.00,VWS V14.01,2013-05-12 23:13:00,
2013-05-12 17:18:00,70.1,33.7,30.00,NW,315,11.0,19.0,26,0.00,,---,0.00,448.00,VWS V14.01,2013-05-12 23:18:00,
2013-05-12 17:23:00,70.0,32.6,30.00,NNW,328,14.0,19.0,25,0.00,,---,0.00,462.00,VWS V14.01,2013-05-12 23:23:00,
2013-05-12 17:28:00,69.7,33.3,30.00,NNW,334,11.0,15.0,26,0.00,,---,0.00,153.00,VWS V14.01,2013-05-12 23:28:00,
2013-05-12 17:33:00,70.4,33.9,30.00,WNW,302,18.0,18.0,26,0.00,,---,0.00,476.00,VWS V14.01,2013-05-12 23:33:00,
2013-05-12 17:38:00,71.3,33.7,29.99,NNW,329,14.0,19.0,25,0.00,,---,0.00,469.00,VWS V14.01,2013-05-12 23:38:00,
2013-05-12 17:43:00,71.5,32.8,29.99,NW,320,15.0,19.0,24,0.00,,---,0.00,429.00,VWS V14.01,2013-05-12 23:43:00,
2013-05-12 17:48:00,71.3,32.7,30.00,NW,309,14.0,20.0,24,0.00,,---,0.00,381.00,VWS V14.01,2013-05-12 23:48:00,
2013-05-12 17:53:00,71.0,34.4,29.99,NNW,342,13.0,20.0,26,0.00,,---,0.00,329.00,VWS V14.01,2013-05-12 23:53:00,
2013-05-12 17:58:00,70.6,34.1,29.99,WNW,295,11.0,16.0,26,0.00,,---,0.00,380.00,VWS V14.01,2013-05-12 23:58:00,
2013-05-12 18:03:00,70.8,32.3,29.99,NW,307,13.0,16.0,24,0.00,,---,0.00,345.00,VWS V14.01,2013-05-13 00:03:00,
2013-05-12 18:08:00,71.0,33.4,29.99,NW,311,12.0,19.0,25,0.00,,---,0.00,327.00,VWS V14.01,2013-05-13 00:08:00,
2013-05-12 18:13:00,71.0,31.4,29.98,NW,305,11.0,22.0,23,0.00,,---,0.00,322.00,VWS V14.01,2013-05-13 00:13:00,
2013-05-12 18:18:00,70.9,32.3,29.98,NW,315,17.0,22.0,24,0.00,,---,0.00,301.00,VWS V14.01,2013-05-13 00:18:00,
2013-05-12 18:23:00,70.8,32.3,29.99,NW,309,13.0,22.0,24,0.00,,---,0.00,287.00,VWS V14.01,2013-05-13 00:23:00,
2013-05-12 18:28:00,70.6,31.0,29.98,NW,321,14.0,18.0,23,0.00,,---,0.00,267.00,VWS V14.01,2013-05-13 00:28:00,
2013-05-12 18:33:00,70.2,33.7,29.98,NNW,330,9.0,18.0,26,0.00,,---,0.00,244.00,VWS V14.01,2013-05-13 00:33:00,
2013-05-12 18:38:00,70.1,32.7,29.98,NW,321,9.0,18.0,25,0.00,,---,0.00,221.00,VWS V14.01,2013-05-13 00:38:00,
2013-05-12 18:43:00,69.8,33.4,29.98,NW,323,11.0,18.0,26,0.00,,---,0.00,156.00,VWS V14.01,2013-05-13 00:43:00,
2013-05-12 18:48:00,69.3,33.0,29.98,NNW,335,10.0,18.0,26,0.00,,---,0.00,162.00,VWS V14.01,2013-05-13 00:48:00,
2013-05-12 18:53:00,69.1,33.7,29.98,NNW,330,9.0,18.0,27,0.00,,---,0.00,169.00,VWS V14.01,2013-05-13 00:53:00,
2013-05-12 18:58:00,69.0,34.6,29.98,North,10,5.0,5.0,28,0.00,,---,0.00,155.00,VWS V14.01,2013-05-13 00:58:00,
2013-05-12 19:03:00,68.8,35.3,29.98,NNW,348,5.0,9.0,29,0.00,,---,0.00,123.00,VWS V14.01,2013-05-13 01:03:00,
2013-05-12 19:08:00,68.5,34.1,29.97,NNW,330,6.0,10.0,28,0.00,,---,0.00,100.00,VWS V14.01,2013-05-13 01:08:00,
2013-05-12 19:13:00,68.0,35.4,29.97,NNW,338,5.0,10.0,30,0.00,,---,0.00,77.00,VWS V14.01,2013-05-13 01:13:00,
2013-05-12 19:18:00,67.3,34.8,29.97,NNW,335,6.0,10.0,30,0.00,,---,0.00,60.00,VWS V14.01,2013-05-13 01:18:00,
2013-05-12 19:23:00,66.8,34.4,29.97,NNW,338,6.0,10.0,30,0.00,,---,0.00,51.00,VWS V14.01,2013-05-13 01:23:00,
2013-05-12 19:28:00,65.8,37.4,29.97,NNW,338,5.0,5.0,35,0.00,,---,0.00,47.00,VWS V14.01,2013-05-13 01:28:00,
2013-05-12 19:33:00,64.9,35.9,29.97,NNW,339,6.0,7.0,34,0.00,,---,0.00,42.00,VWS V14.01,2013-05-13 01:33:00,
2013-05-12 19:38:00,64.7,36.4,29.97,NNW,342,4.0,8.0,35,0.00,,---,0.00,37.00,VWS V14.01,2013-05-13 01:38:00,
2013-05-12 19:43:00,63.3,38.6,29.97,NNW,342,5.0,8.0,40,0.00,,---,0.00,32.00,VWS V14.01,2013-05-13 01:43:00,
2013-05-12 19:48:00,61.9,38.0,29.97,NNW,342,4.0,8.0,41,0.00,,---,0.00,28.00,VWS V14.01,2013-05-13 01:48:00,
2013-05-12 19:53:00,61.1,37.2,29.97,NNW,342,4.0,8.0,41,0.00,,---,0.00,18.00,VWS V14.01,2013-05-13 01:53:00,
2013-05-12 19:58:00,60.9,37.1,29.97,NNW,342,4.0,4.0,41,0.00,,---,0.00,12.00,VWS V14.01,2013-05-13 01:58:00,
2013-05-12 20:03:00,60.9,36.4,29.97,NNW,342,4.0,5.0,40,0.00,,---,0.00,9.00,VWS V14.01,2013-05-13 02:03:00,
2013-05-12 20:08:00,61.2,35.4,29.97,North,355,5.0,5.0,38,0.00,,---,0.00,0.00,VWS V14.01,2013-05-13 02:08:00,
2013-05-12 20:13:00,60.9,35.1,29.97,North,360,5.0,6.0,38,0.00,,---,0.00,0.00,VWS V14.01,2013-05-13 02:13:00,
2013-05-12 20:18:00,61.1,36.6,29.97,North,9,4.0,6.0,40,0.00,,---,0.00,0.00,VWS V14.01,2013-05-13 02:18:00,
2013-05-12 20:23:00,60.4,34.7,29.97,North,5,4.0,6.0,38,0.00,,---,0.00,0.00,VWS V14.01,2013-05-13 02:23:00,
2013-05-12 20:28:00,60.4,34.0,29.97,North,5,4.0,5.0,37,0.00,,---,0.00,0.00,VWS V14.01,2013-05-13 02:28:00,
2013-05-12 20:33:00,60.6,34.2,29.97,NNW,344,5.0,5.0,37,0.00,,---,0.00,0.00,VWS V14.01,2013-05-13 02:33:00,
2013-05-12 20:38:00,60.5,34.1,29.98,NNW,344,5.0,5.0,37,0.00,,---,0.00,0.00,VWS V14.01,2013-05-13 02:38:00,
2013-05-12 20:43:00,60.3,33.9,29.98,NNW,340,4.0,5.0,37,0.00,,---,0.00,0.00,VWS V14.01,2013-05-13 02:43:00,
2013-05-12 20:48:00,60.3,34.6,29.98,NW,325,5.0,5.0,38,0.00,,---,0.00,0.00,VWS V14.01,2013-05-13 02:48:00,
2013-05-12 20:53:00,60.5,34.1,29.98,NW,324,5.0,5.0,37,0.00,,---,0.00,0.00,VWS V14.01,2013-05-13 02:53:00,
2013-05-12 20:58:00,59.9,34.9,29.98,NW,322,4.0,5.0,39,0.00,,---,0.00,0.00,VWS V14.01,2013-05-13 02:58:00,
2013-05-12 21:03:00,59.9,34.9,29.98,NW,322,4.0,5.0,39,0.00,,---,0.00,0.00,VWS V14.01,2013-05-13 03:03:00,
2013-05-12 21:08:00,60.0,35.0,29.98,NW,322,5.0,5.0,39,0.00,,---,0.00,0.00,VWS V14.01,2013-05-13 03:08:00,
2013-05-12 21:13:00,60.2,34.5,29.98,NW,322,5.0,5.0,38,0.00,,---,0.00,0.00,VWS V14.01,2013-05-13 03:13:00,
2013-05-12 21:18:00,60.6,34.9,29.99,NW,322,6.0,7.0,38,0.00,,---,0.00,0.00,VWS V14.01,2013-05-13 03:18:00,
2013-05-12 21:23:00,60.6,34.9,29.99,NW,322,6.0,7.0,38,0.00,,---,0.00,0.00,VWS V14.01,2013-05-13 03:23:00,
2013-05-12 21:28:00,60.4,35.3,29.99,NNW,333,7.0,8.0,39,0.00,,---,0.00,0.00,VWS V14.01,2013-05-13 03:28:00,
2013-05-12 21:33:00,59.8,36.7,29.99,NNW,340,6.0,8.0,42,0.00,,---,0.00,0.00,VWS V14.01,2013-05-13 03:33:00,
2013-05-12 21:38:00,58.2,37.5,29.99,NNW,340,6.0,8.0,46,0.00,,---,0.00,0.00,VWS V14.01,2013-05-13 03:38:00,
2013-05-12 21:43:00,57.3,36.2,29.99,NNW,332,6.0,8.0,45,0.00,,---,0.00,0.00,VWS V14.01,2013-05-13 03:43:00,
2013-05-12 21:48:00,58.1,35.7,29.99,NNW,331,9.0,10.0,43,0.00,,---,0.00,0.00,VWS V14.01,2013-05-13 03:48:00,
2013-05-12 21:53:00,58.6,36.2,29.99,NNW,336,7.0,10.0,43,0.00,,---,0.00,0.00,VWS V14.01,2013-05-13 03:53:00,
2013-05-12 21:58:00,58.8,35.8,29.99,NNW,330,9.0,10.0,42,0.00,,---,0.00,0.00,VWS V14.01,2013-05-13 03:58:00,
2013-05-12 22:01:00,58.9,35.9,29.99,NNW,329,10.0,10.0,42,0.00,,---,0.00,0.00,VWS V14.01,2013-05-13 04:01:00,
2013-05-12 22:06:00,59.0,35.3,29.98,NNW,335,11.0,12.0,41,0.00,,---,0.00,0.00,VWS V14.01,2013-05-13 04:06:00,
2013-05-12 22:11:00,58.9,35.9,29.98,NNW,331,8.0,12.0,42,0.00,,---,0.00,0.00,VWS V14.01,2013-05-13 04:11:00,
2013-05-12 22:16:00,58.5,36.1,29.98,NNW,333,9.0,12.0,43,0.00,,---,0.00,0.00,VWS V14.01,2013-05-13 04:16:00,
2013-05-12 22:21:00,58.2,35.8,29.98,NNW,333,9.0,12.0,43,0.00,,---,0.00,0.00,VWS V14.01,2013-05-13 04:21:00,
2013-05-12 22:26:00,58.3,35.3,29.98,NNW,331,8.0,12.0,42,0.00,,---,0.00,0.00,VWS V14.01,2013-05-13 04:26:00,
2013-05-12 22:31:00,58.2,35.2,29.98,NNW,329,11.0,11.0,42,0.00,,---,0.00,0.00,VWS V14.01,2013-05-13 04:31:00,
2013-05-12 22:36:00,58.2,35.2,29.98,NNW,332,9.0,11.0,42,0.00,,---,0.00,0.00,VWS V14.01,2013-05-13 04:36:00,
2013-05-12 22:41:00,58.1,35.2,29.97,NW,325,9.0,11.0,42,0.00,,---,0.00,0.00,VWS V14.01,2013-05-13 04:41:00,
2013-05-12 22:46:00,58.0,35.1,29.98,NNW,327,8.0,11.0,42,0.00,,---,0.00,0.00,VWS V14.01,2013-05-13 04:46:00,
2013-05-12 22:51:00,57.9,35.6,29.98,NNW,331,8.0,11.0,43,0.00,,---,0.00,0.00,VWS V14.01,2013-05-13 04:51:00,
2013-05-12 22:56:00,57.7,35.4,29.98,NNW,332,9.0,11.0,43,0.00,,---,0.00,0.00,VWS V14.01,2013-05-13 04:56:00,
2013-05-12 23:01:00,57.6,35.3,29.98,NNW,330,8.0,11.0,43,0.00,,---,0.00,0.00,VWS V14.01,2013-05-13 05:01:00,
2013-05-12 23:06:00,57.6,35.3,29.97,NW,326,9.0,11.0,43,0.00,,---,0.00,0.00,VWS V14.01,2013-05-13 05:06:00,
2013-05-12 23:11:00,57.7,35.4,29.97,NW,325,10.0,11.0,43,0.00,,---,0.00,0.00,VWS V14.01,2013-05-13 05:11:00,
2013-05-12 23:16:00,57.7,35.4,29.97,NNW,328,9.0,11.0,43,0.00,,---,0.00,0.00,VWS V14.01,2013-05-13 05:16:00,
2013-05-12 23:21:00,57.8,35.5,29.97,NNW,327,10.0,11.0,43,0.00,,---,0.00,0.00,VWS V14.01,2013-05-13 05:21:00,
2013-05-12 23:26:00,57.9,35.0,29.97,NNW,329,11.0,12.0,42,0.00,,---,0.00,0.00,VWS V14.01,2013-05-13 05:26:00,
2013-05-12 23:31:00,57.7,35.4,29.97,NNW,336,9.0,11.0,43,0.00,,---,0.00,0.00,VWS V14.01,2013-05-13 05:31:00,
2013-05-12 23:36:00,57.3,35.0,29.97,NNW,339,10.0,11.0,43,0.00,,---,0.00,0.00,VWS V14.01,2013-05-13 05:36:00,
2013-05-12 23:41:00,57.1,34.8,29.97,NNW,328,11.0,11.0,43,0.00,,---,0.00,0.00,VWS V14.01,2013-05-13 05:41:00,
2013-05-12 23:46:00,57.0,34.8,29.97,NNW,337,10.0,12.0,43,0.00,,---,0.00,0.00,VWS V14.01,2013-05-13 05:46:00,
2013-05-12 23:51:00,56.9,35.2,29.98,NNW,334,9.0,12.0,44,0.00,,---,0.00,0.00,VWS V14.01,2013-05-13 05:51:00,
2013-05-12 23:56:00,56.6,35.0,29.98,NW,323,8.0,12.0,44,0.00,,---,0.00,0.00,VWS V14.01,2013-05-13 05:56:00,